Map

Track Data

SID SEASON NUMBER BASIN SUBBASIN NAME ISO_TIME NATURE LAT LON WMO_WIND WMO_PRES WMO_AGENCY TRACK_TYPE DIST2LAND LANDFALL IFLAG USA_AGENCY USA_ATCF_ID USA_LAT USA_LON USA_RECORD USA_STATUS USA_WIND USA_PRES USA_SSHS USA_R34_NE USA_R34_SE USA_R34_SW USA_R34_NW USA_R50_NE USA_R50_SE USA_R50_SW USA_R50_NW USA_R64_NE USA_R64_SE USA_R64_SW USA_R64_NW USA_POCI USA_ROCI USA_RMW USA_EYE TOKYO_LAT TOKYO_LON TOKYO_GRADE TOKYO_WIND TOKYO_PRES TOKYO_R50_DIR TOKYO_R50_LONG TOKYO_R50_SHORT TOKYO_R30_DIR TOKYO_R30_LONG TOKYO_R30_SHORT TOKYO_LAND CMA_LAT CMA_LON CMA_CAT CMA_WIND CMA_PRES HKO_LAT HKO_LON HKO_CAT HKO_WIND HKO_PRES NEWDELHI_LAT NEWDELHI_LON NEWDELHI_GRADE NEWDELHI_WIND NEWDELHI_PRES NEWDELHI_CI NEWDELHI_DP NEWDELHI_POCI REUNION_LAT REUNION_LON REUNION_TYPE REUNION_WIND REUNION_PRES REUNION_TNUM REUNION_CI REUNION_RMW REUNION_R34_NE REUNION_R34_SE REUNION_R34_SW REUNION_R34_NW REUNION_R50_NE REUNION_R50_SE REUNION_R50_SW REUNION_R50_NW REUNION_R64_NE REUNION_R64_SE REUNION_R64_SW REUNION_R64_NW BOM_LAT BOM_LON BOM_TYPE BOM_WIND BOM_PRES BOM_TNUM BOM_CI BOM_RMW BOM_R34_NE BOM_R34_SE BOM_R34_SW BOM_R34_NW BOM_R50_NE BOM_R50_SE BOM_R50_SW BOM_R50_NW BOM_R64_NE BOM_R64_SE BOM_R64_SW BOM_R64_NW BOM_ROCI BOM_POCI BOM_EYE BOM_POS_METHOD BOM_PRES_METHOD NADI_LAT NADI_LON NADI_CAT NADI_WIND NADI_PRES WELLINGTON_LAT WELLINGTON_LON WELLINGTON_WIND WELLINGTON_PRES DS824_LAT DS824_LON DS824_STAGE DS824_WIND DS824_PRES TD9636_LAT TD9636_LON TD9636_STAGE TD9636_WIND TD9636_PRES TD9635_LAT TD9635_LON TD9635_WIND TD9635_PRES TD9635_ROCI NEUMANN_LAT NEUMANN_LON NEUMANN_CLASS NEUMANN_WIND NEUMANN_PRES MLC_LAT MLC_LON MLC_CLASS MLC_WIND MLC_PRES USA_GUST BOM_GUST BOM_GUST_PER REUNION_GUST REUNION_GUST_PER USA_SEAHGT USA_SEARAD_NE USA_SEARAD_SE USA_SEARAD_SW USA_SEARAD_NW STORM_SPEED STORM_DIR
1952072S19042 1952 20 SI MM NOT_NAMED 1952-03-12 06:00:00 NR -18.8000 41.6000 reunion spur-other 256 256 _____O________ -1 -18.8000 41.6000 99 9.90000 2 202
1952072S19042 1952 20 SI MM NOT_NAMED 1952-03-12 09:00:00 NR -18.8818 41.5517 spur-other 258 258 _____P________ -1 -18.8818 41.5517 99 2 208
1952072S19042 1952 20 SI MM NOT_NAMED 1952-03-12 12:00:00 NR -18.9641 41.5032 spur-other 271 271 _____P________ -1 -18.9641 41.5032 99 2 209
1952072S19042 1952 20 SI MM NOT_NAMED 1952-03-12 15:00:00 NR -19.0475 41.4544 spur-other 271 271 _____P________ -1 -19.0475 41.4544 99 2 207
1952072S19042 1952 20 SI MM NOT_NAMED 1952-03-12 18:00:00 NR -19.1325 41.4051 spur-other 284 284 _____P________ -1 -19.1325 41.4051 99 2 209
1952072S19042 1952 20 SI MM NOT_NAMED 1952-03-12 21:00:00 NR -19.2197 41.3551 spur-other 287 287 _____P________ -1 -19.2197 41.3551 99 2 209
1952072S19042 1952 20 SI MM NOT_NAMED 1952-03-13 00:00:00 NR -19.3097 41.3044 spur-other 301 301 _____P________ -1 -19.3097 41.3044 99 2 207
1952072S19042 1952 20 SI MM NOT_NAMED 1952-03-13 03:00:00 NR -19.4029 41.2527 spur-other 305 305 _____P________ -1 -19.4029 41.2527 99 2 207
1952072S19042 1952 20 SI MM NOT_NAMED 1952-03-13 06:00:00 NR -19.5000 41.2000 reunion spur-other 317 312 _____O________ -1 -19.5000 41.2000 99 9.90000 2 206
1952072S19042 1952 20 SI MM NOT_NAMED 1952-03-13 09:00:00 NR -19.6013 41.1462 spur-other 320 313 _____P________ -1 -19.6013 41.1462 99 2 206
1952072S19042 1952 20 SI MM NOT_NAMED 1952-03-13 12:00:00 NR -19.7066 41.0919 spur-other 313 307 _____P________ -1 -19.7066 41.0919 99 2 206
1952072S19042 1952 20 SI MM NOT_NAMED 1952-03-13 15:00:00 NR -19.8154 41.0379 spur-other 315 309 _____P________ -1 -19.8154 41.0379 99 2 203
1952072S19042 1952 20 SI MM NOT_NAMED 1952-03-13 18:00:00 NR -19.9275 40.9851 spur-other 309 303 _____P________ -1 -19.9275 40.9851 99 2 203
1952072S19042 1952 20 SI MM NOT_NAMED 1952-03-13 21:00:00 NR -20.0424 40.9340 spur-other 312 301 _____P________ -1 -20.0424 40.9340 99 3 202
1952072S19042 1952 20 SI MM NOT_NAMED 1952-03-14 00:00:00 NR -20.1597 40.8857 spur-other 301 296 _____P________ -1 -20.1597 40.8857 99 3 201
1952072S19042 1952 20 SI MM NOT_NAMED 1952-03-14 03:00:00 NR -20.2790 40.8407 spur-other 306 301 _____P________ -1 -20.2790 40.8407 99 3 198
1952072S19042 1952 20 SI MM NOT_NAMED 1952-03-14 06:00:00 NR -20.4000 40.8000 reunion spur-other 301 297 _____O________ -1 -20.4000 40.8000 99 9.90000 3 200
1952072S19042 1952 20 SI MM NOT_NAMED 1952-03-14 09:00:00 NR -20.5337 40.7410 spur-other 307 300 _____P________ -1 -20.5337 40.7410 99 3 202
1952072S19042 1952 20 SI MM NOT_NAMED 1952-03-14 12:00:00 NR -20.6711 40.6831 spur-other 300 300 _____P________ -1 -20.6711 40.6831 99 3 200
1952072S19042 1952 20 SI MM NOT_NAMED 1952-03-14 15:00:00 NR -20.8092 40.6307 spur-other 308 305 _____P________ -1 -20.8092 40.6307 99 3 198
1952072S19042 1952 20 SI MM NOT_NAMED 1952-03-14 18:00:00 NR -20.9447 40.5879 spur-other 305 295 _____P________ -1 -20.9447 40.5879 99 3 194
1952072S19042 1952 20 SI MM NOT_NAMED 1952-03-14 21:00:00 NR -21.0747 40.5592 spur-other 295 295 _____P________ -1 -21.0747 40.5592 99 3 187
1952072S19042 1952 20 SI MM NOT_NAMED 1952-03-15 00:00:00 NR -21.1960 40.5487 spur-other 300 286 _____P________ -1 -21.1960 40.5487 99 2 0
1952072S19042 1952 20 SI MM NOT_NAMED 1952-03-15 03:00:00 NR -21.3054 40.5609 spur-other 286 282 _____P________ -1 -21.3054 40.5609 99 2 167
1952072S19042 1952 20 SI MM NOT_NAMED 1952-03-15 06:00:00 NR -21.4000 40.6000 reunion spur-other 282 269 _____O________ -1 -21.4000 40.6000 99 9.90000 2 152
1952072S19042 1952 20 SI MM NOT_NAMED 1952-03-15 09:00:00 NR -21.4796 40.6692 spur-other 269 259 _____P________ -1 -21.4796 40.6692 99 2 133
1952072S19042 1952 20 SI MM NOT_NAMED 1952-03-15 12:00:00 NR -21.5456 40.7649 spur-other 259 246 _____P________ -1 -21.5456 40.7649 99 2 121
1952072S19042 1952 20 SI MM NOT_NAMED 1952-03-15 15:00:00 NR -21.5988 40.8836 spur-other 246 236 _____P________ -1 -21.5988 40.8836 99 3 112
1952072S19042 1952 20 SI MM NOT_NAMED 1952-03-15 18:00:00 NR -21.6400 41.0220 spur-other 236 213 _____P________ -1 -21.6400 41.0220 99 3 105
1952072S19042 1952 20 SI MM NOT_NAMED 1952-03-15 21:00:00 NR -21.6699 41.1763 spur-other 213 203 _____P________ -1 -21.6699 41.1763 99 3 99
1952072S19042 1952 20 SI MM NOT_NAMED 1952-03-16 00:00:00 NR -21.6893 41.3431 spur-other 203 183 _____P________ -1 -21.6893 41.3431 99 3 95
1952072S19042 1952 20 SI MM NOT_NAMED 1952-03-16 03:00:00 NR -21.6991 41.5188 spur-other 183 164 _____P________ -1 -21.6991 41.5188 99 3 92
1952072S19042 1952 20 SI MM NOT_NAMED 1952-03-16 06:00:00 NR -21.7000 41.7000 reunion spur-other 164 145 _____O________ -1 -21.7000 41.7000 99 9.90000 4 84
1952072S19042 1952 20 SI MM NOT_NAMED 1952-03-16 09:00:00 NR -21.6622 41.8944 spur-other 145 131 _____P________ -1 -21.6622 41.8944 99 4 76
1952072S19042 1952 20 SI MM NOT_NAMED 1952-03-16 12:00:00 NR -21.6094 42.1002 spur-other 131 112 _____P________ -1 -21.6094 42.1002 99 4 74
1952072S19042 1952 20 SI MM NOT_NAMED 1952-03-16 15:00:00 NR -21.5509 42.3107 spur-other 112 98 _____P________ -1 -21.5509 42.3107 99 4 74
1952072S19042 1952 20 SI MM NOT_NAMED 1952-03-16 18:00:00 NR -21.4960 42.5190 spur-other 98 79 _____P________ -1 -21.4960 42.5190 99 4 76
1952072S19042 1952 20 SI MM NOT_NAMED 1952-03-16 21:00:00 NR -21.4540 42.7187 spur-other 79 62 _____P________ -1 -21.4540 42.7187 99 4 80
1952072S19042 1952 20 SI MM NOT_NAMED 1952-03-17 00:00:00 NR -21.4344 42.9031 spur-other 62 41 _____P________ -1 -21.4344 42.9031 99 3 89
1952072S19042 1952 20 SI MM NOT_NAMED 1952-03-17 03:00:00 NR -21.4466 43.0657 spur-other 41 31 _____P________ -1 -21.4466 43.0657 99 3 103
1952072S19042 1952 20 SI MM NOT_NAMED 1952-03-17 06:00:00 NR -21.5000 43.2000 reunion spur-other 31 20 _____O________ -1 -21.5000 43.2000 99 9.90000 3 129
1952072S19042 1952 20 SI MM NOT_NAMED 1952-03-17 09:00:00 NR -21.6219 43.3002 spur-other 20 0 _____P________ -1 -21.6219 43.3002 99 3 150
1952072S19042 1952 20 SI MM NOT_NAMED 1952-03-17 12:00:00 NR -21.7838 43.3751 spur-other 0 0 _____P________ -1 -21.7838 43.3751 99 4 162
1952072S19042 1952 20 SI MM NOT_NAMED 1952-03-17 15:00:00 NR -21.9787 43.4265 spur-other 0 0 _____P________ -1 -21.9787 43.4265 99 4 170
1952072S19042 1952 20 SI MM NOT_NAMED 1952-03-17 18:00:00 NR -22.1994 43.4564 spur-other 0 0 _____P________ -1 -22.1994 43.4564 99 5 176
1952072S19042 1952 20 SI MM NOT_NAMED 1952-03-17 21:00:00 NR -22.4389 43.4668 spur-other 0 0 _____P________ -1 -22.4389 43.4668 99 5 179
1952072S19042 1952 20 SI MM NOT_NAMED 1952-03-18 00:00:00 NR -22.6903 43.4596 spur-other 0 0 _____P________ -1 -22.6903 43.4596 99 5 0
1952072S19042 1952 20 SI MM NOT_NAMED 1952-03-18 03:00:00 NR -22.9463 43.4367 spur-other 10 10 _____P________ -1 -22.9463 43.4367 99 5 186
1952072S19042 1952 20 SI MM NOT_NAMED 1952-03-18 06:00:00 NR -23.2000 43.4000 reunion spur-other 20 20 _____O________ -1 -23.2000 43.4000 99 9.90000 5 184
1952072S19042 1952 20 SI MM NOT_NAMED 1952-03-18 09:00:00 NR -23.4564 43.3875 spur-other 30 20 _____P________ -1 -23.4564 43.3875 99 5 183
1952072S19042 1952 20 SI MM NOT_NAMED 1952-03-18 12:00:00 NR -23.7194 43.3611 spur-other 20 20 _____P________ -1 -23.7194 43.3611 99 5 188
1952072S19042 1952 20 SI MM NOT_NAMED 1952-03-18 15:00:00 NR -23.9812 43.3189 spur-other 40 40 _____P________ -1 -23.9812 43.3189 99 5 191
1952072S19042 1952 20 SI MM NOT_NAMED 1952-03-18 18:00:00 NR -24.2340 43.2589 spur-other 42 42 _____P________ -1 -24.2340 43.2589 99 5 195
1952072S19042 1952 20 SI MM NOT_NAMED 1952-03-18 21:00:00 NR -24.4701 43.1789 spur-other 60 60 _____P________ -1 -24.4701 43.1789 99 5 200
1952072S19042 1952 20 SI MM NOT_NAMED 1952-03-19 00:00:00 NR -24.6817 43.0771 spur-other 71 71 _____P________ -1 -24.6817 43.0771 99 4 208
1952072S19042 1952 20 SI MM NOT_NAMED 1952-03-19 03:00:00 NR -24.8609 42.9514 spur-other 87 87 _____P________ -1 -24.8609 42.9514 99 4 218
1952072S19042 1952 20 SI MM NOT_NAMED 1952-03-19 06:00:00 NR -25.0000 42.8000 reunion spur-other 110 110 _____O________ -1 -25.0000 42.8000 99 9.90000 4 232
1952072S19042 1952 20 SI MM NOT_NAMED 1952-03-19 09:00:00 NR -25.0934 42.6219 spur-other 133 133 _____P________ -1 -25.0934 42.6219 99 4 247
1952072S19042 1952 20 SI MM NOT_NAMED 1952-03-19 12:00:00 NR -25.1448 42.4197 spur-other 151 151 _____P________ -1 -25.1448 42.4197 99 4 260
1952072S19042 1952 20 SI MM NOT_NAMED 1952-03-19 15:00:00 NR -25.1599 42.1971 spur-other 174 174 _____P________ -1 -25.1599 42.1971 99 4 270
1952072S19042 1952 20 SI MM NOT_NAMED 1952-03-19 18:00:00 NR -25.1448 41.9575 spur-other 189 189 _____P________ -1 -25.1448 41.9575 99 4 277
1952072S19042 1952 20 SI MM NOT_NAMED 1952-03-19 21:00:00 NR -25.1053 41.7045 spur-other 218 218 _____P________ -1 -25.1053 41.7045 99 5 282
1952072S19042 1952 20 SI MM NOT_NAMED 1952-03-20 00:00:00 NR -25.0473 41.4416 spur-other 246 246 _____P________ -1 -25.0473 41.4416 99 5 285
1952072S19042 1952 20 SI MM NOT_NAMED 1952-03-20 03:00:00 NR -24.9769 41.1723 spur-other 266 266 _____P________ -1 -24.9769 41.1723 99 5 287
1952072S19042 1952 20 SI MM NOT_NAMED 1952-03-20 06:00:00 NR -24.9000 40.9000 reunion spur-other 294 _____O________ -1 -24.9000 40.9000 99 9.90000 5 287

About IBTrACS Database

This database is a web-friendly format of International Best Track Archive for Climate Stewardship (IBTrACS), a global best track data archive curated by NOAA dating back to 1842.

Updated: 2021-10-21